sensor_id;sensor_type;location;lat;lon;timestamp;temperature;humidity
18882;DHT22;9573;50.948;11.600;2023-03-14T00:01:26;10.30;99.90
18882;DHT22;9573;50.948;11.600;2023-03-14T00:03:55;10.30;99.90
18882;DHT22;9573;50.948;11.600;2023-03-14T00:06:22;10.30;99.90
18882;DHT22;9573;50.948;11.600;2023-03-14T00:08:49;10.30;99.90
18882;DHT22;9573;50.948;11.600;2023-03-14T00:11:19;10.30;99.90
18882;DHT22;9573;50.948;11.600;2023-03-14T00:13:47;10.30;99.90
18882;DHT22;9573;50.948;11.600;2023-03-14T00:16:14;10.30;99.90
18882;DHT22;9573;50.948;11.600;2023-03-14T00:18:42;10.30;99.90
18882;DHT22;9573;50.948;11.600;2023-03-14T00:21:11;10.40;99.90
18882;DHT22;9573;50.948;11.600;2023-03-14T00:23:40;10.40;99.90
18882;DHT22;9573;50.948;11.600;2023-03-14T00:26:10;10.40;99.90
18882;DHT22;9573;50.948;11.600;2023-03-14T00:28:38;10.40;99.90
18882;DHT22;9573;50.948;11.600;2023-03-14T00:31:08;10.40;99.90
18882;DHT22;9573;50.948;11.600;2023-03-14T00:33:37;10.50;99.90
18882;DHT22;9573;50.948;11.600;2023-03-14T00:36:06;10.50;99.90
18882;DHT22;9573;50.948;11.600;2023-03-14T00:38:37;10.50;99.90
18882;DHT22;9573;50.948;11.600;2023-03-14T00:41:06;10.50;99.90
18882;DHT22;9573;50.948;11.600;2023-03-14T00:43:34;10.50;99.90
18882;DHT22;9573;50.948;11.600;2023-03-14T00:46:01;10.50;99.90
18882;DHT22;9573;50.948;11.600;2023-03-14T00:48:29;10.50;99.90
18882;DHT22;9573;50.948;11.600;2023-03-14T00:50:56;10.50;99.90
18882;DHT22;9573;50.948;11.600;2023-03-14T00:53:24;10.50;99.90
18882;DHT22;9573;50.948;11.600;2023-03-14T00:55:52;10.50;99.90
18882;DHT22;9573;50.948;11.600;2023-03-14T00:58:19;10.40;99.90
18882;DHT22;9573;50.948;11.600;2023-03-14T01:00:47;10.40;99.90
18882;DHT22;9573;50.948;11.600;2023-03-14T01:03:14;10.40;99.90
18882;DHT22;9573;50.948;11.600;2023-03-14T01:05:41;10.40;99.90
18882;DHT22;9573;50.948;11.600;2023-03-14T01:08:08;10.40;99.90
18882;DHT22;9573;50.948;11.600;2023-03-14T01:10:38;10.40;99.90
18882;DHT22;9573;50.948;11.600;2023-03-14T01:13:08;10.40;99.90
18882;DHT22;9573;50.948;11.600;2023-03-14T01:15:36;10.40;99.90
18882;DHT22;9573;50.948;11.600;2023-03-14T01:18:04;10.40;99.90
18882;DHT22;9573;50.948;11.600;2023-03-14T01:20:31;10.40;99.90
18882;DHT22;9573;50.948;11.600;2023-03-14T01:22:58;10.40;99.90
18882;DHT22;9573;50.948;11.600;2023-03-14T01:25:25;10.40;99.90
18882;DHT22;9573;50.948;11.600;2023-03-14T01:27:53;10.40;99.90
18882;DHT22;9573;50.948;11.600;2023-03-14T01:30:21;10.50;99.90
18882;DHT22;9573;50.948;11.600;2023-03-14T01:32:48;10.60;99.90
18882;DHT22;9573;50.948;11.600;2023-03-14T01:35:16;10.70;99.90
18882;DHT22;9573;50.948;11.600;2023-03-14T01:37:43;10.80;99.90
18882;DHT22;9573;50.948;11.600;2023-03-14T01:40:11;10.90;99.90
18882;DHT22;9573;50.948;11.600;2023-03-14T01:42:45;11.00;99.90
18882;DHT22;9573;50.948;11.600;2023-03-14T01:48:50;11.10;99.90
18882;DHT22;9573;50.948;11.600;2023-03-14T01:51:24;11.20;99.90
18882;DHT22;9573;50.948;11.600;2023-03-14T01:53:54;11.30;99.90
18882;DHT22;9573;50.948;11.600;2023-03-14T01:56:31;11.40;99.90
18882;DHT22;9573;50.948;11.600;2023-03-14T01:58:59;11.40;99.90
18882;DHT22;9573;50.948;11.600;2023-03-14T02:01:28;11.40;99.90
18882;DHT22;9573;50.948;11.600;2023-03-14T02:04:01;11.50;99.90
18882;DHT22;9573;50.948;11.600;2023-03-14T02:06:33;11.50;99.90
18882;DHT22;9573;50.948;11.600;2023-03-14T02:09:04;11.50;99.90
18882;DHT22;9573;50.948;11.600;2023-03-14T02:11:31;11.50;99.90
18882;DHT22;9573;50.948;11.600;2023-03-14T02:13:59;11.50;99.90
18882;DHT22;9573;50.948;11.600;2023-03-14T02:16:28;11.50;99.90
18882;DHT22;9573;50.948;11.600;2023-03-14T02:18:57;11.50;99.90
18882;DHT22;9573;50.948;11.600;2023-03-14T02:21:27;11.50;99.90
18882;DHT22;9573;50.948;11.600;2023-03-14T02:24:09;11.50;99.90
18882;DHT22;9573;50.948;11.600;2023-03-14T02:26:44;11.50;99.90
18882;DHT22;9573;50.948;11.600;2023-03-14T02:29:29;11.60;99.90
18882;DHT22;9573;50.948;11.600;2023-03-14T02:31:57;11.50;99.90
18882;DHT22;9573;50.948;11.600;2023-03-14T02:34:25;11.60;99.90
18882;DHT22;9573;50.948;11.600;2023-03-14T02:36:53;11.70;99.90
18882;DHT22;9573;50.948;11.600;2023-03-14T02:39:24;11.70;99.90
18882;DHT22;9573;50.948;11.600;2023-03-14T02:41:56;11.70;99.90
18882;DHT22;9573;50.948;11.600;2023-03-14T02:44:23;11.70;99.90
18882;DHT22;9573;50.948;11.600;2023-03-14T02:46:51;11.70;99.90
18882;DHT22;9573;50.948;11.600;2023-03-14T02:49:18;11.70;99.90
18882;DHT22;9573;50.948;11.600;2023-03-14T02:51:46;11.70;99.90
18882;DHT22;9573;50.948;11.600;2023-03-14T02:54:14;11.80;99.90
18882;DHT22;9573;50.948;11.600;2023-03-14T02:56:42;11.80;99.90
18882;DHT22;9573;50.948;11.600;2023-03-14T02:59:09;11.70;99.90
18882;DHT22;9573;50.948;11.600;2023-03-14T03:01:36;11.70;99.90
18882;DHT22;9573;50.948;11.600;2023-03-14T03:04:05;11.70;99.90
18882;DHT22;9573;50.948;11.600;2023-03-14T03:06:32;11.70;99.90
18882;DHT22;9573;50.948;11.600;2023-03-14T03:08:59;11.70;99.90
18882;DHT22;9573;50.948;11.600;2023-03-14T03:11:26;11.70;99.90
18882;DHT22;9573;50.948;11.600;2023-03-14T03:13:53;11.70;99.90
18882;DHT22;9573;50.948;11.600;2023-03-14T03:16:20;11.70;99.90
18882;DHT22;9573;50.948;11.600;2023-03-14T03:18:48;11.60;99.90
18882;DHT22;9573;50.948;11.600;2023-03-14T03:21:16;11.60;99.90
18882;DHT22;9573;50.948;11.600;2023-03-14T03:23:44;11.60;99.90
18882;DHT22;9573;50.948;11.600;2023-03-14T03:26:11;11.50;99.90
18882;DHT22;9573;50.948;11.600;2023-03-14T03:28:38;11.40;99.90
18882;DHT22;9573;50.948;11.600;2023-03-14T03:31:09;11.40;99.90
18882;DHT22;9573;50.948;11.600;2023-03-14T03:33:37;11.40;99.90
18882;DHT22;9573;50.948;11.600;2023-03-14T03:36:05;11.50;99.90
18882;DHT22;9573;50.948;11.600;2023-03-14T03:38:35;11.50;99.90
18882;DHT22;9573;50.948;11.600;2023-03-14T03:41:04;11.50;99.90
18882;DHT22;9573;50.948;11.600;2023-03-14T03:43:31;11.60;99.90
18882;DHT22;9573;50.948;11.600;2023-03-14T03:46:02;11.70;99.90
18882;DHT22;9573;50.948;11.600;2023-03-14T03:48:30;11.70;99.90
18882;DHT22;9573;50.948;11.600;2023-03-14T03:50:57;11.70;99.90
18882;DHT22;9573;50.948;11.600;2023-03-14T03:53:24;11.70;99.90
18882;DHT22;9573;50.948;11.600;2023-03-14T03:55:53;11.80;99.90
18882;DHT22;9573;50.948;11.600;2023-03-14T03:58:20;11.70;99.90
18882;DHT22;9573;50.948;11.600;2023-03-14T04:00:47;11.70;99.90
18882;DHT22;9573;50.948;11.600;2023-03-14T04:03:14;11.70;99.90
18882;DHT22;9573;50.948;11.600;2023-03-14T04:05:41;11.70;99.90
18882;DHT22;9573;50.948;11.600;2023-03-14T04:08:08;11.60;99.90
18882;DHT22;9573;50.948;11.600;2023-03-14T04:10:35;11.60;99.90
18882;DHT22;9573;50.948;11.600;2023-03-14T04:13:04;11.60;99.90
18882;DHT22;9573;50.948;11.600;2023-03-14T04:15:31;11.70;99.90
18882;DHT22;9573;50.948;11.600;2023-03-14T04:17:58;11.70;99.90
18882;DHT22;9573;50.948;11.600;2023-03-14T04:20:25;11.70;99.90
18882;DHT22;9573;50.948;11.600;2023-03-14T04:22:53;11.70;99.90
18882;DHT22;9573;50.948;11.600;2023-03-14T04:25:20;11.70;99.90
18882;DHT22;9573;50.948;11.600;2023-03-14T04:27:47;11.70;99.90
18882;DHT22;9573;50.948;11.600;2023-03-14T04:30:16;11.70;99.90
18882;DHT22;9573;50.948;11.600;2023-03-14T04:32:43;11.60;99.90
18882;DHT22;9573;50.948;11.600;2023-03-14T04:35:10;11.70;99.90
18882;DHT22;9573;50.948;11.600;2023-03-14T04:37:37;11.70;99.90
18882;DHT22;9573;50.948;11.600;2023-03-14T04:40:05;11.70;99.90
18882;DHT22;9573;50.948;11.600;2023-03-14T04:42:34;11.70;99.90
18882;DHT22;9573;50.948;11.600;2023-03-14T04:45:03;11.70;99.90
18882;DHT22;9573;50.948;11.600;2023-03-14T04:47:32;11.70;99.90
18882;DHT22;9573;50.948;11.600;2023-03-14T04:49:59;11.70;99.90
18882;DHT22;9573;50.948;11.600;2023-03-14T04:52:27;11.70;99.90
18882;DHT22;9573;50.948;11.600;2023-03-14T04:54:54;11.60;99.90
18882;DHT22;9573;50.948;11.600;2023-03-14T04:57:21;11.60;99.90
18882;DHT22;9573;50.948;11.600;2023-03-14T04:59:48;11.50;99.90
18882;DHT22;9573;50.948;11.600;2023-03-14T05:02:15;11.40;99.90
18882;DHT22;9573;50.948;11.600;2023-03-14T05:04:43;11.40;99.90
18882;DHT22;9573;50.948;11.600;2023-03-14T05:07:10;11.30;99.90
18882;DHT22;9573;50.948;11.600;2023-03-14T05:09:37;11.20;99.90
18882;DHT22;9573;50.948;11.600;2023-03-14T05:12:05;11.20;99.90
18882;DHT22;9573;50.948;11.600;2023-03-14T05:14:33;11.20;99.90
18882;DHT22;9573;50.948;11.600;2023-03-14T05:17:00;11.20;99.90
18882;DHT22;9573;50.948;11.600;2023-03-14T05:19:28;11.20;99.90
18882;DHT22;9573;50.948;11.600;2023-03-14T05:21:56;11.10;99.90
18882;DHT22;9573;50.948;11.600;2023-03-14T05:24:23;11.20;99.90
18882;DHT22;9573;50.948;11.600;2023-03-14T05:26:50;11.20;99.90
18882;DHT22;9573;50.948;11.600;2023-03-14T05:29:19;11.30;99.90
18882;DHT22;9573;50.948;11.600;2023-03-14T05:31:46;11.30;99.90
18882;DHT22;9573;50.948;11.600;2023-03-14T05:34:13;11.40;99.90
18882;DHT22;9573;50.948;11.600;2023-03-14T05:36:40;11.40;99.90
18882;DHT22;9573;50.948;11.600;2023-03-14T05:39:09;11.40;99.90
18882;DHT22;9573;50.948;11.600;2023-03-14T05:41:36;11.40;99.90
18882;DHT22;9573;50.948;11.600;2023-03-14T05:44:03;11.30;99.90
18882;DHT22;9573;50.948;11.600;2023-03-14T05:46:30;11.30;99.90
18882;DHT22;9573;50.948;11.600;2023-03-14T05:48:58;11.20;99.90
18882;DHT22;9573;50.948;11.600;2023-03-14T05:51:26;11.30;99.90
18882;DHT22;9573;50.948;11.600;2023-03-14T05:53:53;11.30;99.90
18882;DHT22;9573;50.948;11.600;2023-03-14T05:56:21;11.30;99.90
18882;DHT22;9573;50.948;11.600;2023-03-14T05:58:48;11.20;99.90
18882;DHT22;9573;50.948;11.600;2023-03-14T06:01:15;11.20;99.90
18882;DHT22;9573;50.948;11.600;2023-03-14T06:03:43;11.30;99.90
18882;DHT22;9573;50.948;11.600;2023-03-14T06:06:10;11.30;99.90
18882;DHT22;9573;50.948;11.600;2023-03-14T06:08:37;11.80;99.90
18882;DHT22;9573;50.948;11.600;2023-03-14T06:11:04;11.30;99.90
18882;DHT22;9573;50.948;11.600;2023-03-14T06:13:33;11.30;99.90
18882;DHT22;9573;50.948;11.600;2023-03-14T06:16:00;11.40;99.90
18882;DHT22;9573;50.948;11.600;2023-03-14T06:18:27;11.40;99.90
18882;DHT22;9573;50.948;11.600;2023-03-14T06:20:55;11.40;99.90
18882;DHT22;9573;50.948;11.600;2023-03-14T06:23:22;11.50;99.90
18882;DHT22;9573;50.948;11.600;2023-03-14T06:25:50;11.50;99.90
18882;DHT22;9573;50.948;11.600;2023-03-14T06:28:17;11.60;99.90
18882;DHT22;9573;50.948;11.600;2023-03-14T06:30:46;11.70;99.90
18882;DHT22;9573;50.948;11.600;2023-03-14T06:33:13;11.70;99.90
18882;DHT22;9573;50.948;11.600;2023-03-14T06:35:40;11.80;99.90
18882;DHT22;9573;50.948;11.600;2023-03-14T06:38:07;11.80;99.90
18882;DHT22;9573;50.948;11.600;2023-03-14T06:40:34;11.90;99.90
18882;DHT22;9573;50.948;11.600;2023-03-14T06:43:01;11.90;99.90
18882;DHT22;9573;50.948;11.600;2023-03-14T06:45:28;13.10;99.90
18882;DHT22;9573;50.948;11.600;2023-03-14T06:47:59;12.10;99.90
18882;DHT22;9573;50.948;11.600;2023-03-14T06:50:26;12.20;99.90
18882;DHT22;9573;50.948;11.600;2023-03-14T06:52:53;12.20;99.90
18882;DHT22;9573;50.948;11.600;2023-03-14T06:55:20;12.20;99.90
18882;DHT22;9573;50.948;11.600;2023-03-14T06:57:47;12.30;99.90
18882;DHT22;9573;50.948;11.600;2023-03-14T07:00:15;12.30;99.90
18882;DHT22;9573;50.948;11.600;2023-03-14T07:02:43;12.40;99.90
18882;DHT22;9573;50.948;11.600;2023-03-14T07:05:11;12.50;99.90
18882;DHT22;9573;50.948;11.600;2023-03-14T07:07:38;12.60;99.90
18882;DHT22;9573;50.948;11.600;2023-03-14T07:10:06;12.70;99.90
18882;DHT22;9573;50.948;11.600;2023-03-14T07:12:35;12.70;99.90
18882;DHT22;9573;50.948;11.600;2023-03-14T07:15:05;12.70;99.90
18882;DHT22;9573;50.948;11.600;2023-03-14T07:17:35;12.70;99.90
18882;DHT22;9573;50.948;11.600;2023-03-14T07:20:02;12.80;99.90
18882;DHT22;9573;50.948;11.600;2023-03-14T07:22:32;12.80;99.90
18882;DHT22;9573;50.948;11.600;2023-03-14T07:24:59;12.80;99.90
18882;DHT22;9573;50.948;11.600;2023-03-14T07:27:26;12.80;99.90
18882;DHT22;9573;50.948;11.600;2023-03-14T07:29:53;12.80;99.90
18882;DHT22;9573;50.948;11.600;2023-03-14T07:32:20;12.80;99.90
18882;DHT22;9573;50.948;11.600;2023-03-14T07:34:47;12.90;99.90
18882;DHT22;9573;50.948;11.600;2023-03-14T07:37:19;13.10;99.90
18882;DHT22;9573;50.948;11.600;2023-03-14T07:39:47;14.00;99.90
18882;DHT22;9573;50.948;11.600;2023-03-14T07:42:17;14.10;99.90
18882;DHT22;9573;50.948;11.600;2023-03-14T07:44:44;14.20;99.90
18882;DHT22;9573;50.948;11.600;2023-03-14T07:47:11;13.90;99.90
18882;DHT22;9573;50.948;11.600;2023-03-14T07:49:38;13.60;99.90
18882;DHT22;9573;50.948;11.600;2023-03-14T07:52:07;13.40;99.90
18882;DHT22;9573;50.948;11.600;2023-03-14T07:54:34;13.40;99.90
18882;DHT22;9573;50.948;11.600;2023-03-14T07:57:06;13.70;99.90
18882;DHT22;9573;50.948;11.600;2023-03-14T07:59:33;14.00;99.90
18882;DHT22;9573;50.948;11.600;2023-03-14T08:02:01;14.30;99.90
18882;DHT22;9573;50.948;11.600;2023-03-14T08:04:31;14.50;99.90
18882;DHT22;9573;50.948;11.600;2023-03-14T08:06:59;14.70;99.90
18882;DHT22;9573;50.948;11.600;2023-03-14T08:09:26;14.90;99.90
18882;DHT22;9573;50.948;11.600;2023-03-14T08:11:53;15.00;99.90
18882;DHT22;9573;50.948;11.600;2023-03-14T08:14:22;15.30;99.90
18882;DHT22;9573;50.948;11.600;2023-03-14T08:16:49;15.40;99.90
18882;DHT22;9573;50.948;11.600;2023-03-14T08:19:16;15.30;99.90
18882;DHT22;9573;50.948;11.600;2023-03-14T08:21:44;15.30;99.90
18882;DHT22;9573;50.948;11.600;2023-03-14T08:24:11;15.40;99.90
18882;DHT22;9573;50.948;11.600;2023-03-14T08:26:38;15.50;99.90
18882;DHT22;9573;50.948;11.600;2023-03-14T08:29:05;15.60;99.90
18882;DHT22;9573;50.948;11.600;2023-03-14T08:31:35;15.80;99.90
18882;DHT22;9573;50.948;11.600;2023-03-14T08:34:02;16.00;99.90
18882;DHT22;9573;50.948;11.600;2023-03-14T08:36:29;15.70;99.90
18882;DHT22;9573;50.948;11.600;2023-03-14T08:38:57;15.30;99.90
18882;DHT22;9573;50.948;11.600;2023-03-14T08:41:24;15.20;99.90
18882;DHT22;9573;50.948;11.600;2023-03-14T08:43:51;15.00;99.90
18882;DHT22;9573;50.948;11.600;2023-03-14T08:46:18;15.00;99.90
18882;DHT22;9573;50.948;11.600;2023-03-14T08:48:47;14.90;99.90
18882;DHT22;9573;50.948;11.600;2023-03-14T08:51:14;14.80;99.90
18882;DHT22;9573;50.948;11.600;2023-03-14T08:53:42;14.80;99.90
18882;DHT22;9573;50.948;11.600;2023-03-14T08:56:10;15.00;99.90
18882;DHT22;9573;50.948;11.600;2023-03-14T08:58:37;15.30;99.90
18882;DHT22;9573;50.948;11.600;2023-03-14T09:01:05;16.30;99.90
18882;DHT22;9573;50.948;11.600;2023-03-14T09:03:32;17.10;99.90
18882;DHT22;9573;50.948;11.600;2023-03-14T09:06:03;17.20;99.90
18882;DHT22;9573;50.948;11.600;2023-03-14T09:08:31;17.30;99.90
18882;DHT22;9573;50.948;11.600;2023-03-14T09:10:58;17.20;99.90
18882;DHT22;9573;50.948;11.600;2023-03-14T09:13:26;17.50;99.90
18882;DHT22;9573;50.948;11.600;2023-03-14T09:15:53;17.80;99.90
18882;DHT22;9573;50.948;11.600;2023-03-14T09:18:21;17.50;99.90
18882;DHT22;9573;50.948;11.600;2023-03-14T09:20:49;17.10;99.90
18882;DHT22;9573;50.948;11.600;2023-03-14T09:23:17;16.40;99.90
18882;DHT22;9573;50.948;11.600;2023-03-14T09:25:44;16.10;99.90
18882;DHT22;9573;50.948;11.600;2023-03-14T09:28:12;15.70;99.90
18882;DHT22;9573;50.948;11.600;2023-03-14T09:30:39;15.50;99.90
18882;DHT22;9573;50.948;11.600;2023-03-14T09:33:06;15.30;99.90
18882;DHT22;9573;50.948;11.600;2023-03-14T09:35:33;15.20;99.90
18882;DHT22;9573;50.948;11.600;2023-03-14T09:38:00;15.10;99.90
18882;DHT22;9573;50.948;11.600;2023-03-14T09:40:32;14.90;99.90
18882;DHT22;9573;50.948;11.600;2023-03-14T09:43:01;14.80;99.90
18882;DHT22;9573;50.948;11.600;2023-03-14T09:45:31;14.80;99.90
18882;DHT22;9573;50.948;11.600;2023-03-14T09:48:01;15.00;99.90
18882;DHT22;9573;50.948;11.600;2023-03-14T09:50:35;15.20;99.90
18882;DHT22;9573;50.948;11.600;2023-03-14T09:53:08;15.50;99.90
18882;DHT22;9573;50.948;11.600;2023-03-14T09:55:39;15.80;99.90
18882;DHT22;9573;50.948;11.600;2023-03-14T09:58:11;17.80;99.90
18882;DHT22;9573;50.948;11.600;2023-03-14T10:00:39;20.80;99.90
18882;DHT22;9573;50.948;11.600;2023-03-14T10:03:22;23.50;99.90
18882;DHT22;9573;50.948;11.600;2023-03-14T10:05:52;24.70;96.90
18882;DHT22;9573;50.948;11.600;2023-03-14T10:08:19;23.40;94.70
18882;DHT22;9573;50.948;11.600;2023-03-14T10:10:48;22.20;95.70
18882;DHT22;9573;50.948;11.600;2023-03-14T10:13:18;21.20;97.10
18882;DHT22;9573;50.948;11.600;2023-03-14T10:15:50;20.30;98.80
18882;DHT22;9573;50.948;11.600;2023-03-14T10:18:19;20.40;99.40
18882;DHT22;9573;50.948;11.600;2023-03-14T10:20:47;22.00;97.10
18882;DHT22;9573;50.948;11.600;2023-03-14T10:23:23;21.60;96.90
18882;DHT22;9573;50.948;11.600;2023-03-14T10:26:06;21.40;97.40
18882;DHT22;9573;50.948;11.600;2023-03-14T10:28:38;20.40;98.50
18882;DHT22;9573;50.948;11.600;2023-03-14T10:31:06;19.30;99.90
18882;DHT22;9573;50.948;11.600;2023-03-14T10:33:35;18.40;99.90
18882;DHT22;9573;50.948;11.600;2023-03-14T10:36:06;17.60;99.90
18882;DHT22;9573;50.948;11.600;2023-03-14T10:38:44;16.80;99.90
18882;DHT22;9573;50.948;11.600;2023-03-14T10:41:19;16.70;99.90
18882;DHT22;9573;50.948;11.600;2023-03-14T10:43:51;16.30;99.90
18882;DHT22;9573;50.948;11.600;2023-03-14T10:46:20;16.10;99.90
18882;DHT22;9573;50.948;11.600;2023-03-14T10:48:52;15.80;99.90
18882;DHT22;9573;50.948;11.600;2023-03-14T10:51:24;15.70;99.90
18882;DHT22;9573;50.948;11.600;2023-03-14T10:53:59;15.50;99.90
18882;DHT22;9573;50.948;11.600;2023-03-14T10:56:34;15.30;99.90
18882;DHT22;9573;50.948;11.600;2023-03-14T10:59:03;15.20;99.90
18882;DHT22;9573;50.948;11.600;2023-03-14T11:01:39;15.30;99.90
18882;DHT22;9573;50.948;11.600;2023-03-14T11:04:20;15.60;99.90
18882;DHT22;9573;50.948;11.600;2023-03-14T11:06:56;17.30;99.90
18882;DHT22;9573;50.948;11.600;2023-03-14T11:09:33;20.50;99.90
18882;DHT22;9573;50.948;11.600;2023-03-14T11:12:15;22.70;99.90
18882;DHT22;9573;50.948;11.600;2023-03-14T11:15:02;23.50;97.90
18882;DHT22;9573;50.948;11.600;2023-03-14T11:17:38;23.90;95.50
18882;DHT22;9573;50.948;11.600;2023-03-14T11:20:22;24.20;93.80
18882;DHT22;9573;50.948;11.600;2023-03-14T11:23:01;23.90;92.50
18882;DHT22;9573;50.948;11.600;2023-03-14T11:25:34;23.20;92.50
18882;DHT22;9573;50.948;11.600;2023-03-14T11:28:10;22.20;94.10
18882;DHT22;9573;50.948;11.600;2023-03-14T11:30:51;21.80;94.40
18882;DHT22;9573;50.948;11.600;2023-03-14T11:33:22;21.70;95.00
18882;DHT22;9573;50.948;11.600;2023-03-14T11:35:58;21.30;95.20
18882;DHT22;9573;50.948;11.600;2023-03-14T11:38:31;20.30;96.40
18882;DHT22;9573;50.948;11.600;2023-03-14T11:41:01;19.30;97.80
18882;DHT22;9573;50.948;11.600;2023-03-14T11:43:32;18.80;99.60
18882;DHT22;9573;50.948;11.600;2023-03-14T11:46:09;18.50;99.90
18882;DHT22;9573;50.948;11.600;2023-03-14T11:48:42;18.30;99.90
18882;DHT22;9573;50.948;11.600;2023-03-14T11:51:15;18.90;99.90
18882;DHT22;9573;50.948;11.600;2023-03-14T11:53:55;20.10;99.90
18882;DHT22;9573;50.948;11.600;2023-03-14T11:56:31;21.80;97.40
18882;DHT22;9573;50.948;11.600;2023-03-14T11:59:04;23.30;95.00
18882;DHT22;9573;50.948;11.600;2023-03-14T12:01:45;23.60;91.90
18882;DHT22;9573;50.948;11.600;2023-03-14T12:04:25;22.60;93.00
18882;DHT22;9573;50.948;11.600;2023-03-14T12:07:03;22.40;93.30
18882;DHT22;9573;50.948;11.600;2023-03-14T12:09:36;22.20;92.60
18882;DHT22;9573;50.948;11.600;2023-03-14T12:12:04;21.50;93.10
18882;DHT22;9573;50.948;11.600;2023-03-14T12:14:34;20.70;94.10
18882;DHT22;9573;50.948;11.600;2023-03-14T12:17:06;20.70;94.80
18882;DHT22;9573;50.948;11.600;2023-03-14T12:19:38;21.20;94.00
18882;DHT22;9573;50.948;11.600;2023-03-14T12:22:13;21.60;93.60
18882;DHT22;9573;50.948;11.600;2023-03-14T12:24:57;21.60;93.30
18882;DHT22;9573;50.948;11.600;2023-03-14T12:27:49;21.40;93.40
18882;DHT22;9573;50.948;11.600;2023-03-14T12:30:32;21.20;93.40
18882;DHT22;9573;50.948;11.600;2023-03-14T12:33:28;21.00;93.50
18882;DHT22;9573;50.948;11.600;2023-03-14T12:39:24;20.40;94.10
18882;DHT22;9573;50.948;11.600;2023-03-14T12:42:02;19.50;95.50
18882;DHT22;9573;50.948;11.600;2023-03-14T12:44:45;19.10;96.30
18882;DHT22;9573;50.948;11.600;2023-03-14T12:50:26;19.40;97.00
18882;DHT22;9573;50.948;11.600;2023-03-14T12:53:27;20.00;96.00
18882;DHT22;9573;50.948;11.600;2023-03-14T12:56:22;19.90;96.10
18882;DHT22;9573;50.948;11.600;2023-03-14T12:59:03;20.30;95.60
18882;DHT22;9573;50.948;11.600;2023-03-14T13:01:37;20.50;95.40
18882;DHT22;9573;50.948;11.600;2023-03-14T13:04:14;21.10;94.70
18882;DHT22;9573;50.948;11.600;2023-03-14T13:06:48;20.80;94.50
18882;DHT22;9573;50.948;11.600;2023-03-14T13:12:48;21.10;93.90
18882;DHT22;9573;50.948;11.600;2023-03-14T13:15:20;20.70;93.80
18882;DHT22;9573;50.948;11.600;2023-03-14T13:17:51;20.30;94.70
18882;DHT22;9573;50.948;11.600;2023-03-14T13:20:28;19.80;94.70
18882;DHT22;9573;50.948;11.600;2023-03-14T13:22:57;19.30;95.20
18882;DHT22;9573;50.948;11.600;2023-03-14T13:25:24;18.90;96.00
18882;DHT22;9573;50.948;11.600;2023-03-14T13:27:56;18.50;96.20
18882;DHT22;9573;50.948;11.600;2023-03-14T13:30:25;18.00;97.00
18882;DHT22;9573;50.948;11.600;2023-03-14T13:32:54;17.80;97.50
18882;DHT22;9573;50.948;11.600;2023-03-14T13:35:26;17.80;98.10
18882;DHT22;9573;50.948;11.600;2023-03-14T13:37:59;17.60;98.40
18882;DHT22;9573;50.948;11.600;2023-03-14T13:40:30;17.40;99.20
18882;DHT22;9573;50.948;11.600;2023-03-14T13:43:04;17.30;99.50
18882;DHT22;9573;50.948;11.600;2023-03-14T13:45:53;17.20;99.60
18882;DHT22;9573;50.948;11.600;2023-03-14T13:48:25;17.00;99.90
18882;DHT22;9573;50.948;11.600;2023-03-14T13:50:56;16.90;99.90
18882;DHT22;9573;50.948;11.600;2023-03-14T13:53:26;16.70;99.90
18882;DHT22;9573;50.948;11.600;2023-03-14T13:55:53;16.30;99.90
18882;DHT22;9573;50.948;11.600;2023-03-14T13:58:23;16.10;99.90
18882;DHT22;9573;50.948;11.600;2023-03-14T14:01:05;15.80;99.90
18882;DHT22;9573;50.948;11.600;2023-03-14T14:03:38;15.70;99.90
18882;DHT22;9573;50.948;11.600;2023-03-14T14:06:16;15.70;99.90
18882;DHT22;9573;50.948;11.600;2023-03-14T14:08:48;15.70;99.90
18882;DHT22;9573;50.948;11.600;2023-03-14T14:11:33;15.80;99.90
18882;DHT22;9573;50.948;11.600;2023-03-14T14:14:06;15.90;99.90
18882;DHT22;9573;50.948;11.600;2023-03-14T14:16:38;15.90;99.90
18882;DHT22;9573;50.948;11.600;2023-03-14T14:19:08;15.90;99.90
18882;DHT22;9573;50.948;11.600;2023-03-14T14:21:36;15.50;99.90
18882;DHT22;9573;50.948;11.600;2023-03-14T14:24:03;15.20;99.90
18882;DHT22;9573;50.948;11.600;2023-03-14T14:26:33;14.90;99.90
18882;DHT22;9573;50.948;11.600;2023-03-14T14:29:02;14.50;99.90
18882;DHT22;9573;50.948;11.600;2023-03-14T14:31:30;14.20;99.90
18882;DHT22;9573;50.948;11.600;2023-03-14T14:33:58;14.00;99.90
18882;DHT22;9573;50.948;11.600;2023-03-14T14:36:28;13.90;99.90
18882;DHT22;9573;50.948;11.600;2023-03-14T14:39:03;13.80;99.90
18882;DHT22;9573;50.948;11.600;2023-03-14T14:41:49;13.70;99.90
18882;DHT22;9573;50.948;11.600;2023-03-14T14:44:20;13.60;99.90
18882;DHT22;9573;50.948;11.600;2023-03-14T14:46:49;13.40;99.90
18882;DHT22;9573;50.948;11.600;2023-03-14T14:49:18;13.10;99.90
18882;DHT22;9573;50.948;11.600;2023-03-14T14:51:49;12.90;99.90
18882;DHT22;9573;50.948;11.600;2023-03-14T14:54:18;12.70;99.90
18882;DHT22;9573;50.948;11.600;2023-03-14T14:56:48;12.40;99.90
18882;DHT22;9573;50.948;11.600;2023-03-14T14:59:21;11.60;99.90
18882;DHT22;9573;50.948;11.600;2023-03-14T15:01:54;10.80;99.90
18882;DHT22;9573;50.948;11.600;2023-03-14T15:04:22;10.70;99.90
18882;DHT22;9573;50.948;11.600;2023-03-14T15:06:50;9.50;99.90
18882;DHT22;9573;50.948;11.600;2023-03-14T15:09:18;9.10;99.90
18882;DHT22;9573;50.948;11.600;2023-03-14T15:11:48;8.90;99.90
18882;DHT22;9573;50.948;11.600;2023-03-14T15:14:15;8.70;99.90
18882;DHT22;9573;50.948;11.600;2023-03-14T15:16:42;8.50;99.90
18882;DHT22;9573;50.948;11.600;2023-03-14T15:19:12;8.50;99.90
18882;DHT22;9573;50.948;11.600;2023-03-14T15:21:45;8.50;99.90
18882;DHT22;9573;50.948;11.600;2023-03-14T15:24:12;8.50;99.90
18882;DHT22;9573;50.948;11.600;2023-03-14T15:26:40;8.60;99.90
18882;DHT22;9573;50.948;11.600;2023-03-14T15:29:10;8.80;99.90
18882;DHT22;9573;50.948;11.600;2023-03-14T15:31:38;8.60;99.90
18882;DHT22;9573;50.948;11.600;2023-03-14T15:34:05;8.70;99.90
18882;DHT22;9573;50.948;11.600;2023-03-14T15:36:33;8.60;99.90
18882;DHT22;9573;50.948;11.600;2023-03-14T15:39:02;8.60;99.90
18882;DHT22;9573;50.948;11.600;2023-03-14T15:41:31;8.50;99.90
18882;DHT22;9573;50.948;11.600;2023-03-14T15:43:58;8.30;99.90
18882;DHT22;9573;50.948;11.600;2023-03-14T15:46:27;8.20;99.90
18882;DHT22;9573;50.948;11.600;2023-03-14T15:48:54;7.90;99.90
18882;DHT22;9573;50.948;11.600;2023-03-14T15:51:22;7.70;99.90
18882;DHT22;9573;50.948;11.600;2023-03-14T15:53:49;7.60;99.90
18882;DHT22;9573;50.948;11.600;2023-03-14T15:56:18;7.40;99.90
18882;DHT22;9573;50.948;11.600;2023-03-14T15:58:49;7.20;99.90
18882;DHT22;9573;50.948;11.600;2023-03-14T16:01:16;7.00;99.90
18882;DHT22;9573;50.948;11.600;2023-03-14T16:03:45;7.00;99.90